sensor_id;sensor_type;location;lat;lon;timestamp;temperature;humidity
17202;DHT22;8717;53.588;10.176;2022-10-16T00:00:35;13.10;99.90
17202;DHT22;8717;53.588;10.176;2022-10-16T00:03:04;13.10;99.90
17202;DHT22;8717;53.588;10.176;2022-10-16T00:05:31;13.10;99.90
17202;DHT22;8717;53.588;10.176;2022-10-16T00:07:58;13.00;99.90
17202;DHT22;8717;53.588;10.176;2022-10-16T00:10:25;13.00;99.90
17202;DHT22;8717;53.588;10.176;2022-10-16T00:12:51;13.00;99.90
17202;DHT22;8717;53.588;10.176;2022-10-16T00:15:18;13.00;99.90
17202;DHT22;8717;53.588;10.176;2022-10-16T00:17:45;13.00;99.90
17202;DHT22;8717;53.588;10.176;2022-10-16T00:20:13;12.90;99.90
17202;DHT22;8717;53.588;10.176;2022-10-16T00:22:40;12.90;99.90
17202;DHT22;8717;53.588;10.176;2022-10-16T00:25:07;12.90;99.90
17202;DHT22;8717;53.588;10.176;2022-10-16T00:27:34;12.80;99.90
17202;DHT22;8717;53.588;10.176;2022-10-16T00:30:01;12.80;99.90
17202;DHT22;8717;53.588;10.176;2022-10-16T00:32:27;12.80;99.90
17202;DHT22;8717;53.588;10.176;2022-10-16T00:34:54;12.80;99.90
17202;DHT22;8717;53.588;10.176;2022-10-16T00:37:22;12.70;99.90
17202;DHT22;8717;53.588;10.176;2022-10-16T00:39:49;12.70;99.90
17202;DHT22;8717;53.588;10.176;2022-10-16T00:42:17;12.60;99.90
17202;DHT22;8717;53.588;10.176;2022-10-16T00:44:48;12.60;99.90
17202;DHT22;8717;53.588;10.176;2022-10-16T00:47:21;12.60;99.90
17202;DHT22;8717;53.588;10.176;2022-10-16T00:49:50;12.50;99.90
17202;DHT22;8717;53.588;10.176;2022-10-16T00:52:18;12.50;99.90
17202;DHT22;8717;53.588;10.176;2022-10-16T00:54:48;12.50;99.90
17202;DHT22;8717;53.588;10.176;2022-10-16T00:57:15;12.50;99.90
17202;DHT22;8717;53.588;10.176;2022-10-16T00:59:42;12.40;99.90
17202;DHT22;8717;53.588;10.176;2022-10-16T01:02:13;12.40;99.90
17202;DHT22;8717;53.588;10.176;2022-10-16T01:04:42;12.40;99.90
17202;DHT22;8717;53.588;10.176;2022-10-16T01:07:14;12.30;99.90
17202;DHT22;8717;53.588;10.176;2022-10-16T01:09:50;12.30;99.90
17202;DHT22;8717;53.588;10.176;2022-10-16T01:12:23;12.30;99.90
17202;DHT22;8717;53.588;10.176;2022-10-16T01:14:54;12.20;99.90
17202;DHT22;8717;53.588;10.176;2022-10-16T01:17:28;12.20;99.90
17202;DHT22;8717;53.588;10.176;2022-10-16T01:20:05;12.20;99.90
17202;DHT22;8717;53.588;10.176;2022-10-16T01:22:40;12.20;99.90
17202;DHT22;8717;53.588;10.176;2022-10-16T01:25:16;12.20;99.90
17202;DHT22;8717;53.588;10.176;2022-10-16T01:27:48;12.20;99.90
17202;DHT22;8717;53.588;10.176;2022-10-16T01:30:18;12.10;99.90
17202;DHT22;8717;53.588;10.176;2022-10-16T01:32:50;12.10;99.90
17202;DHT22;8717;53.588;10.176;2022-10-16T01:35:22;12.10;99.90
17202;DHT22;8717;53.588;10.176;2022-10-16T01:37:53;12.10;99.90
17202;DHT22;8717;53.588;10.176;2022-10-16T01:40:24;12.10;99.90
17202;DHT22;8717;53.588;10.176;2022-10-16T01:42:58;12.10;99.90
17202;DHT22;8717;53.588;10.176;2022-10-16T01:45:28;12.10;99.90
17202;DHT22;8717;53.588;10.176;2022-10-16T01:47:57;12.10;99.90
17202;DHT22;8717;53.588;10.176;2022-10-16T01:50:24;12.10;99.90
17202;DHT22;8717;53.588;10.176;2022-10-16T01:52:55;12.10;99.90
17202;DHT22;8717;53.588;10.176;2022-10-16T01:55:25;12.10;99.90
17202;DHT22;8717;53.588;10.176;2022-10-16T01:57:58;12.10;99.90
17202;DHT22;8717;53.588;10.176;2022-10-16T02:00:26;12.10;99.90
17202;DHT22;8717;53.588;10.176;2022-10-16T02:02:54;12.00;99.90
17202;DHT22;8717;53.588;10.176;2022-10-16T02:05:25;12.00;99.90
17202;DHT22;8717;53.588;10.176;2022-10-16T02:07:53;12.00;99.90
17202;DHT22;8717;53.588;10.176;2022-10-16T02:10:20;11.90;99.90
17202;DHT22;8717;53.588;10.176;2022-10-16T02:12:50;11.90;99.90
17202;DHT22;8717;53.588;10.176;2022-10-16T02:15:22;11.90;99.90
17202;DHT22;8717;53.588;10.176;2022-10-16T02:17:48;11.80;99.90
17202;DHT22;8717;53.588;10.176;2022-10-16T02:20:15;11.90;99.90
17202;DHT22;8717;53.588;10.176;2022-10-16T02:22:45;11.80;99.90
17202;DHT22;8717;53.588;10.176;2022-10-16T02:25:18;11.80;99.90
17202;DHT22;8717;53.588;10.176;2022-10-16T02:27:52;11.80;99.90
17202;DHT22;8717;53.588;10.176;2022-10-16T02:30:27;11.80;99.90
17202;DHT22;8717;53.588;10.176;2022-10-16T02:32:56;11.80;99.90
17202;DHT22;8717;53.588;10.176;2022-10-16T02:35:25;11.80;99.90
17202;DHT22;8717;53.588;10.176;2022-10-16T02:37:53;11.80;99.90
17202;DHT22;8717;53.588;10.176;2022-10-16T02:40:21;11.70;99.90
17202;DHT22;8717;53.588;10.176;2022-10-16T02:42:50;11.70;99.90
17202;DHT22;8717;53.588;10.176;2022-10-16T02:45:18;11.70;99.90
17202;DHT22;8717;53.588;10.176;2022-10-16T02:47:46;11.60;99.90
17202;DHT22;8717;53.588;10.176;2022-10-16T02:50:13;11.60;99.90
17202;DHT22;8717;53.588;10.176;2022-10-16T02:52:40;11.60;99.90
17202;DHT22;8717;53.588;10.176;2022-10-16T02:55:07;11.60;99.90
17202;DHT22;8717;53.588;10.176;2022-10-16T02:57:34;11.60;99.90
17202;DHT22;8717;53.588;10.176;2022-10-16T03:00:03;11.50;99.90
17202;DHT22;8717;53.588;10.176;2022-10-16T03:02:30;11.50;99.90
17202;DHT22;8717;53.588;10.176;2022-10-16T03:04:58;11.50;99.90
17202;DHT22;8717;53.588;10.176;2022-10-16T03:07:24;11.50;99.90
17202;DHT22;8717;53.588;10.176;2022-10-16T03:09:51;11.40;99.90
17202;DHT22;8717;53.588;10.176;2022-10-16T03:12:18;11.40;99.90
17202;DHT22;8717;53.588;10.176;2022-10-16T03:14:44;11.40;99.90
17202;DHT22;8717;53.588;10.176;2022-10-16T03:17:11;11.30;99.90
17202;DHT22;8717;53.588;10.176;2022-10-16T03:19:38;11.30;99.90
17202;DHT22;8717;53.588;10.176;2022-10-16T03:22:06;11.30;99.90
17202;DHT22;8717;53.588;10.176;2022-10-16T03:24:33;11.20;99.90
17202;DHT22;8717;53.588;10.176;2022-10-16T03:27:00;11.10;99.90
17202;DHT22;8717;53.588;10.176;2022-10-16T03:29:27;11.10;99.90
17202;DHT22;8717;53.588;10.176;2022-10-16T03:31:55;11.10;99.90
17202;DHT22;8717;53.588;10.176;2022-10-16T03:34:21;11.00;99.90
17202;DHT22;8717;53.588;10.176;2022-10-16T03:36:48;11.00;99.90
17202;DHT22;8717;53.588;10.176;2022-10-16T03:39:16;11.00;99.90
17202;DHT22;8717;53.588;10.176;2022-10-16T03:41:43;11.00;99.90
17202;DHT22;8717;53.588;10.176;2022-10-16T03:44:10;11.00;99.90
17202;DHT22;8717;53.588;10.176;2022-10-16T03:46:36;10.90;99.90
17202;DHT22;8717;53.588;10.176;2022-10-16T03:49:03;10.90;99.90
17202;DHT22;8717;53.588;10.176;2022-10-16T03:51:30;10.90;99.90
17202;DHT22;8717;53.588;10.176;2022-10-16T03:53:57;10.90;99.90
17202;DHT22;8717;53.588;10.176;2022-10-16T03:56:25;10.90;99.90
17202;DHT22;8717;53.588;10.176;2022-10-16T03:58:51;10.90;99.90
17202;DHT22;8717;53.588;10.176;2022-10-16T04:01:18;10.90;99.90
17202;DHT22;8717;53.588;10.176;2022-10-16T04:03:45;10.90;99.90
17202;DHT22;8717;53.588;10.176;2022-10-16T04:06:11;10.80;99.90
17202;DHT22;8717;53.588;10.176;2022-10-16T04:08:38;10.80;99.90
17202;DHT22;8717;53.588;10.176;2022-10-16T04:11:05;10.80;99.90
17202;DHT22;8717;53.588;10.176;2022-10-16T04:13:33;10.80;99.90
17202;DHT22;8717;53.588;10.176;2022-10-16T04:15:59;10.80;99.90
17202;DHT22;8717;53.588;10.176;2022-10-16T04:18:26;10.80;99.90
17202;DHT22;8717;53.588;10.176;2022-10-16T04:20:53;10.80;99.90
17202;DHT22;8717;53.588;10.176;2022-10-16T04:23:20;10.80;99.90
17202;DHT22;8717;53.588;10.176;2022-10-16T04:25:48;10.80;99.90
17202;DHT22;8717;53.588;10.176;2022-10-16T04:28:15;10.80;99.90
17202;DHT22;8717;53.588;10.176;2022-10-16T04:30:43;10.80;99.90
17202;DHT22;8717;53.588;10.176;2022-10-16T04:33:09;10.80;99.90
17202;DHT22;8717;53.588;10.176;2022-10-16T04:35:36;10.80;99.90
17202;DHT22;8717;53.588;10.176;2022-10-16T04:38:03;10.80;99.90
17202;DHT22;8717;53.588;10.176;2022-10-16T04:40:29;10.70;99.90
17202;DHT22;8717;53.588;10.176;2022-10-16T04:42:58;10.70;99.90
17202;DHT22;8717;53.588;10.176;2022-10-16T04:45:25;10.70;99.90
17202;DHT22;8717;53.588;10.176;2022-10-16T04:47:53;10.70;99.90
17202;DHT22;8717;53.588;10.176;2022-10-16T04:50:22;10.70;99.90
17202;DHT22;8717;53.588;10.176;2022-10-16T04:53:04;10.70;99.90
17202;DHT22;8717;53.588;10.176;2022-10-16T04:55:30;10.60;99.90
17202;DHT22;8717;53.588;10.176;2022-10-16T04:57:57;10.60;99.90
17202;DHT22;8717;53.588;10.176;2022-10-16T05:00:24;10.60;99.90
17202;DHT22;8717;53.588;10.176;2022-10-16T05:02:50;10.60;99.90
17202;DHT22;8717;53.588;10.176;2022-10-16T05:05:19;10.60;99.90
17202;DHT22;8717;53.588;10.176;2022-10-16T05:07:46;10.50;99.90
17202;DHT22;8717;53.588;10.176;2022-10-16T05:10:12;10.50;99.90
17202;DHT22;8717;53.588;10.176;2022-10-16T05:12:39;10.50;99.90
17202;DHT22;8717;53.588;10.176;2022-10-16T05:15:07;10.50;99.90
17202;DHT22;8717;53.588;10.176;2022-10-16T05:17:34;10.50;99.90
17202;DHT22;8717;53.588;10.176;2022-10-16T05:20:00;10.50;99.90
17202;DHT22;8717;53.588;10.176;2022-10-16T05:22:29;10.50;99.90
17202;DHT22;8717;53.588;10.176;2022-10-16T05:24:55;10.40;99.90
17202;DHT22;8717;53.588;10.176;2022-10-16T05:27:22;10.40;99.90
17202;DHT22;8717;53.588;10.176;2022-10-16T05:29:49;10.40;99.90
17202;DHT22;8717;53.588;10.176;2022-10-16T05:32:17;10.40;99.90
17202;DHT22;8717;53.588;10.176;2022-10-16T05:34:45;10.50;99.90
17202;DHT22;8717;53.588;10.176;2022-10-16T05:37:12;10.40;99.90
17202;DHT22;8717;53.588;10.176;2022-10-16T05:39:40;10.40;99.90
17202;DHT22;8717;53.588;10.176;2022-10-16T05:42:06;10.40;99.90
17202;DHT22;8717;53.588;10.176;2022-10-16T05:44:33;10.40;99.90
17202;DHT22;8717;53.588;10.176;2022-10-16T05:47:00;10.40;99.90
17202;DHT22;8717;53.588;10.176;2022-10-16T05:49:27;10.40;99.90
17202;DHT22;8717;53.588;10.176;2022-10-16T05:51:53;10.30;99.90
17202;DHT22;8717;53.588;10.176;2022-10-16T05:54:20;10.30;99.90
17202;DHT22;8717;53.588;10.176;2022-10-16T05:56:48;10.30;99.90
17202;DHT22;8717;53.588;10.176;2022-10-16T05:59:15;10.30;99.90
17202;DHT22;8717;53.588;10.176;2022-10-16T06:01:41;10.30;99.90
17202;DHT22;8717;53.588;10.176;2022-10-16T06:04:08;10.30;99.90
17202;DHT22;8717;53.588;10.176;2022-10-16T06:06:35;10.30;99.90
17202;DHT22;8717;53.588;10.176;2022-10-16T06:09:03;10.30;99.90
17202;DHT22;8717;53.588;10.176;2022-10-16T06:11:32;10.30;99.90
17202;DHT22;8717;53.588;10.176;2022-10-16T06:14:01;10.30;99.90
17202;DHT22;8717;53.588;10.176;2022-10-16T06:16:32;10.30;99.90
17202;DHT22;8717;53.588;10.176;2022-10-16T06:18:59;10.40;99.90
17202;DHT22;8717;53.588;10.176;2022-10-16T06:21:27;10.40;99.90
17202;DHT22;8717;53.588;10.176;2022-10-16T06:23:55;10.40;99.90
17202;DHT22;8717;53.588;10.176;2022-10-16T06:26:25;10.40;99.90
17202;DHT22;8717;53.588;10.176;2022-10-16T06:28:53;10.40;99.90
17202;DHT22;8717;53.588;10.176;2022-10-16T06:31:22;10.40;99.90
17202;DHT22;8717;53.588;10.176;2022-10-16T06:33:53;10.40;99.90
17202;DHT22;8717;53.588;10.176;2022-10-16T06:36:20;10.50;99.90
17202;DHT22;8717;53.588;10.176;2022-10-16T06:38:47;10.40;99.90
17202;DHT22;8717;53.588;10.176;2022-10-16T06:41:15;10.40;99.90
17202;DHT22;8717;53.588;10.176;2022-10-16T06:43:42;10.50;99.90
17202;DHT22;8717;53.588;10.176;2022-10-16T06:46:11;10.50;99.90
17202;DHT22;8717;53.588;10.176;2022-10-16T06:48:39;10.50;99.90
17202;DHT22;8717;53.588;10.176;2022-10-16T06:51:08;10.50;99.90
17202;DHT22;8717;53.588;10.176;2022-10-16T06:53:36;10.50;99.90
17202;DHT22;8717;53.588;10.176;2022-10-16T06:56:07;10.50;99.90
17202;DHT22;8717;53.588;10.176;2022-10-16T06:58:34;10.50;99.90
17202;DHT22;8717;53.588;10.176;2022-10-16T07:01:01;10.50;99.90
17202;DHT22;8717;53.588;10.176;2022-10-16T07:03:27;10.50;99.90
17202;DHT22;8717;53.588;10.176;2022-10-16T07:05:55;10.60;99.90
17202;DHT22;8717;53.588;10.176;2022-10-16T07:08:22;10.60;99.90
17202;DHT22;8717;53.588;10.176;2022-10-16T07:10:58;10.60;99.90
17202;DHT22;8717;53.588;10.176;2022-10-16T07:13:24;10.70;99.90
17202;DHT22;8717;53.588;10.176;2022-10-16T07:15:51;10.80;99.90
17202;DHT22;8717;53.588;10.176;2022-10-16T07:18:18;10.80;99.90
17202;DHT22;8717;53.588;10.176;2022-10-16T07:20:44;10.90;99.90
17202;DHT22;8717;53.588;10.176;2022-10-16T07:23:12;11.00;99.90
17202;DHT22;8717;53.588;10.176;2022-10-16T07:25:39;11.10;99.90
17202;DHT22;8717;53.588;10.176;2022-10-16T07:28:06;11.20;99.90
17202;DHT22;8717;53.588;10.176;2022-10-16T07:30:35;11.30;99.90
17202;DHT22;8717;53.588;10.176;2022-10-16T07:33:03;11.40;99.90
17202;DHT22;8717;53.588;10.176;2022-10-16T07:35:33;11.50;99.90
17202;DHT22;8717;53.588;10.176;2022-10-16T07:38:01;11.60;99.90
17202;DHT22;8717;53.588;10.176;2022-10-16T07:40:29;11.80;99.90
17202;DHT22;8717;53.588;10.176;2022-10-16T07:42:55;11.90;99.90
17202;DHT22;8717;53.588;10.176;2022-10-16T07:45:22;12.00;99.90
17202;DHT22;8717;53.588;10.176;2022-10-16T07:47:49;12.10;99.90
17202;DHT22;8717;53.588;10.176;2022-10-16T07:50:15;12.20;99.90
17202;DHT22;8717;53.588;10.176;2022-10-16T07:52:42;12.30;99.90
17202;DHT22;8717;53.588;10.176;2022-10-16T07:55:09;12.40;99.90
17202;DHT22;8717;53.588;10.176;2022-10-16T07:57:37;12.50;99.90
17202;DHT22;8717;53.588;10.176;2022-10-16T08:00:04;12.60;99.90
17202;DHT22;8717;53.588;10.176;2022-10-16T08:02:37;12.60;99.90
17202;DHT22;8717;53.588;10.176;2022-10-16T08:05:05;12.70;99.90
17202;DHT22;8717;53.588;10.176;2022-10-16T08:07:32;12.90;99.90
17202;DHT22;8717;53.588;10.176;2022-10-16T08:09:59;13.00;99.90
17202;DHT22;8717;53.588;10.176;2022-10-16T08:12:25;13.10;99.90
17202;DHT22;8717;53.588;10.176;2022-10-16T08:14:53;13.20;99.90
17202;DHT22;8717;53.588;10.176;2022-10-16T08:17:20;13.30;99.90
17202;DHT22;8717;53.588;10.176;2022-10-16T08:19:47;13.40;99.90
17202;DHT22;8717;53.588;10.176;2022-10-16T08:22:14;13.50;99.90
17202;DHT22;8717;53.588;10.176;2022-10-16T08:24:41;13.60;99.90
17202;DHT22;8717;53.588;10.176;2022-10-16T08:27:08;13.60;99.90
17202;DHT22;8717;53.588;10.176;2022-10-16T08:29:35;13.60;99.90
17202;DHT22;8717;53.588;10.176;2022-10-16T08:32:05;13.70;99.90
17202;DHT22;8717;53.588;10.176;2022-10-16T08:34:32;13.70;99.90
17202;DHT22;8717;53.588;10.176;2022-10-16T08:36:58;13.80;99.90
17202;DHT22;8717;53.588;10.176;2022-10-16T08:39:25;14.00;99.90
17202;DHT22;8717;53.588;10.176;2022-10-16T08:42:14;14.20;99.90
17202;DHT22;8717;53.588;10.176;2022-10-16T08:45:00;14.60;99.90
17202;DHT22;8717;53.588;10.176;2022-10-16T08:47:39;15.20;99.90
17202;DHT22;8717;53.588;10.176;2022-10-16T08:50:12;15.70;99.90
17202;DHT22;8717;53.588;10.176;2022-10-16T08:52:42;16.10;99.90
17202;DHT22;8717;53.588;10.176;2022-10-16T08:55:19;16.40;99.90
17202;DHT22;8717;53.588;10.176;2022-10-16T08:57:51;16.70;99.90
17202;DHT22;8717;53.588;10.176;2022-10-16T09:00:18;16.90;99.90
17202;DHT22;8717;53.588;10.176;2022-10-16T09:02:52;17.20;99.90
17202;DHT22;8717;53.588;10.176;2022-10-16T09:08:34;18.00;99.90
17202;DHT22;8717;53.588;10.176;2022-10-16T09:11:08;18.50;99.90
17202;DHT22;8717;53.588;10.176;2022-10-16T09:13:46;18.70;99.90
17202;DHT22;8717;53.588;10.176;2022-10-16T09:16:19;19.00;99.90
17202;DHT22;8717;53.588;10.176;2022-10-16T09:18:54;19.30;99.90
17202;DHT22;8717;53.588;10.176;2022-10-16T09:21:25;19.50;99.90
17202;DHT22;8717;53.588;10.176;2022-10-16T09:23:54;19.80;99.90
17202;DHT22;8717;53.588;10.176;2022-10-16T09:26:23;19.90;99.90
17202;DHT22;8717;53.588;10.176;2022-10-16T09:28:52;20.00;99.90
17202;DHT22;8717;53.588;10.176;2022-10-16T09:31:20;20.00;99.90
17202;DHT22;8717;53.588;10.176;2022-10-16T09:33:52;19.90;99.90
17202;DHT22;8717;53.588;10.176;2022-10-16T09:36:21;19.80;99.90
17202;DHT22;8717;53.588;10.176;2022-10-16T09:38:48;19.60;99.90
17202;DHT22;8717;53.588;10.176;2022-10-16T09:41:18;19.50;99.90
17202;DHT22;8717;53.588;10.176;2022-10-16T09:43:52;19.50;99.90
17202;DHT22;8717;53.588;10.176;2022-10-16T09:46:26;19.60;99.90
17202;DHT22;8717;53.588;10.176;2022-10-16T09:48:57;19.70;99.90
17202;DHT22;8717;53.588;10.176;2022-10-16T09:51:26;19.80;99.90
17202;DHT22;8717;53.588;10.176;2022-10-16T09:53:58;19.90;99.90
17202;DHT22;8717;53.588;10.176;2022-10-16T09:56:27;20.10;99.90
17202;DHT22;8717;53.588;10.176;2022-10-16T09:58:56;20.20;99.90
17202;DHT22;8717;53.588;10.176;2022-10-16T10:01:27;20.40;99.90
17202;DHT22;8717;53.588;10.176;2022-10-16T10:03:57;20.70;99.90
17202;DHT22;8717;53.588;10.176;2022-10-16T10:06:30;20.80;99.10
17202;DHT22;8717;53.588;10.176;2022-10-16T10:09:14;21.10;99.40
17202;DHT22;8717;53.588;10.176;2022-10-16T10:11:45;21.30;98.00
17202;DHT22;8717;53.588;10.176;2022-10-16T10:14:18;21.40;97.90
17202;DHT22;8717;53.588;10.176;2022-10-16T10:16:45;21.50;97.90
17202;DHT22;8717;53.588;10.176;2022-10-16T10:19:16;21.70;98.20
17202;DHT22;8717;53.588;10.176;2022-10-16T10:21:43;21.80;97.60
17202;DHT22;8717;53.588;10.176;2022-10-16T10:24:14;21.90;97.30
17202;DHT22;8717;53.588;10.176;2022-10-16T10:26:47;21.90;96.40
17202;DHT22;8717;53.588;10.176;2022-10-16T10:29:21;22.00;96.60
17202;DHT22;8717;53.588;10.176;2022-10-16T10:31:56;22.00;96.30
17202;DHT22;8717;53.588;10.176;2022-10-16T10:34:42;22.10;96.10
17202;DHT22;8717;53.588;10.176;2022-10-16T10:37:36;22.20;95.80
17202;DHT22;8717;53.588;10.176;2022-10-16T10:40:21;22.20;95.40
17202;DHT22;8717;53.588;10.176;2022-10-16T10:42:54;22.20;94.50
17202;DHT22;8717;53.588;10.176;2022-10-16T10:45:26;22.10;95.00
17202;DHT22;8717;53.588;10.176;2022-10-16T10:48:03;22.20;95.40
17202;DHT22;8717;53.588;10.176;2022-10-16T10:50:39;22.10;95.00
17202;DHT22;8717;53.588;10.176;2022-10-16T10:53:14;22.10;95.00
17202;DHT22;8717;53.588;10.176;2022-10-16T10:55:48;22.00;94.80
17202;DHT22;8717;53.588;10.176;2022-10-16T10:58:36;22.00;94.80
17202;DHT22;8717;53.588;10.176;2022-10-16T11:01:09;21.80;94.20
17202;DHT22;8717;53.588;10.176;2022-10-16T11:03:53;21.70;93.90
17202;DHT22;8717;53.588;10.176;2022-10-16T11:06:29;21.70;94.60
17202;DHT22;8717;53.588;10.176;2022-10-16T11:09:00;21.60;94.60
17202;DHT22;8717;53.588;10.176;2022-10-16T11:11:33;21.60;94.30
17202;DHT22;8717;53.588;10.176;2022-10-16T11:14:04;21.40;93.60
17202;DHT22;8717;53.588;10.176;2022-10-16T11:16:39;21.30;93.80
17202;DHT22;8717;53.588;10.176;2022-10-16T11:19:11;21.20;94.40
17202;DHT22;8717;53.588;10.176;2022-10-16T11:21:46;21.20;94.10
17202;DHT22;8717;53.588;10.176;2022-10-16T11:24:20;21.20;95.00
17202;DHT22;8717;53.588;10.176;2022-10-16T11:26:49;21.10;93.50
17202;DHT22;8717;53.588;10.176;2022-10-16T11:29:19;21.20;94.40
17202;DHT22;8717;53.588;10.176;2022-10-16T11:31:51;21.20;93.90
17202;DHT22;8717;53.588;10.176;2022-10-16T11:34:24;21.20;93.60
17202;DHT22;8717;53.588;10.176;2022-10-16T11:36:57;21.20;93.30
17202;DHT22;8717;53.588;10.176;2022-10-16T11:39:27;21.20;93.00
17202;DHT22;8717;53.588;10.176;2022-10-16T11:41:58;21.10;92.90
17202;DHT22;8717;53.588;10.176;2022-10-16T11:44:38;21.00;93.00
17202;DHT22;8717;53.588;10.176;2022-10-16T11:47:15;20.90;93.10
17202;DHT22;8717;53.588;10.176;2022-10-16T11:49:47;20.80;93.10
17202;DHT22;8717;53.588;10.176;2022-10-16T11:52:22;20.80;93.70
17202;DHT22;8717;53.588;10.176;2022-10-16T11:54:54;20.70;93.20
17202;DHT22;8717;53.588;10.176;2022-10-16T11:57:26;20.70;92.90
17202;DHT22;8717;53.588;10.176;2022-10-16T11:59:57;20.60;93.10
17202;DHT22;8717;53.588;10.176;2022-10-16T12:02:44;20.50;93.00
17202;DHT22;8717;53.588;10.176;2022-10-16T12:05:20;20.40;93.30
17202;DHT22;8717;53.588;10.176;2022-10-16T12:07:57;20.30;93.30
17202;DHT22;8717;53.588;10.176;2022-10-16T12:10:29;20.20;93.50
17202;DHT22;8717;53.588;10.176;2022-10-16T12:12:57;20.00;93.80
17202;DHT22;8717;53.588;10.176;2022-10-16T12:15:26;20.00;93.70
17202;DHT22;8717;53.588;10.176;2022-10-16T12:17:54;19.80;93.80
17202;DHT22;8717;53.588;10.176;2022-10-16T12:20:27;19.70;94.00
17202;DHT22;8717;53.588;10.176;2022-10-16T12:22:59;19.50;93.80
17202;DHT22;8717;53.588;10.176;2022-10-16T12:25:29;19.50;94.10
17202;DHT22;8717;53.588;10.176;2022-10-16T12:28:01;19.50;94.40
17202;DHT22;8717;53.588;10.176;2022-10-16T12:30:31;19.60;94.80
17202;DHT22;8717;53.588;10.176;2022-10-16T12:33:00;19.70;94.50
17202;DHT22;8717;53.588;10.176;2022-10-16T12:35:30;19.80;93.80
17202;DHT22;8717;53.588;10.176;2022-10-16T12:38:07;19.90;93.60
17202;DHT22;8717;53.588;10.176;2022-10-16T12:40:37;20.00;92.80
17202;DHT22;8717;53.588;10.176;2022-10-16T12:43:26;20.10;91.90
17202;DHT22;8717;53.588;10.176;2022-10-16T12:46:04;20.10;92.80
17202;DHT22;8717;53.588;10.176;2022-10-16T12:48:31;20.10;92.90
17202;DHT22;8717;53.588;10.176;2022-10-16T12:51:10;20.20;92.50
17202;DHT22;8717;53.588;10.176;2022-10-16T12:53:38;20.20;92.30
17202;DHT22;8717;53.588;10.176;2022-10-16T12:56:12;20.40;92.70
17202;DHT22;8717;53.588;10.176;2022-10-16T12:58:52;20.50;92.50
17202;DHT22;8717;53.588;10.176;2022-10-16T13:01:34;20.50;92.10
17202;DHT22;8717;53.588;10.176;2022-10-16T13:04:22;20.60;91.80
17202;DHT22;8717;53.588;10.176;2022-10-16T13:07:00;20.60;91.50
17202;DHT22;8717;53.588;10.176;2022-10-16T13:09:38;20.70;91.70
17202;DHT22;8717;53.588;10.176;2022-10-16T13:12:36;20.70;91.20
17202;DHT22;8717;53.588;10.176;2022-10-16T13:15:22;20.70;90.60
17202;DHT22;8717;53.588;10.176;2022-10-16T13:17:59;20.70;90.40
17202;DHT22;8717;53.588;10.176;2022-10-16T13:20:32;20.60;90.30
17202;DHT22;8717;53.588;10.176;2022-10-16T13:23:07;20.60;90.70
17202;DHT22;8717;53.588;10.176;2022-10-16T13:25:50;20.40;90.80
17202;DHT22;8717;53.588;10.176;2022-10-16T13:28:26;20.40;91.00
17202;DHT22;8717;53.588;10.176;2022-10-16T13:30:56;20.30;91.30
17202;DHT22;8717;53.588;10.176;2022-10-16T13:33:30;20.30;91.00
17202;DHT22;8717;53.588;10.176;2022-10-16T13:35:58;20.20;91.00
17202;DHT22;8717;53.588;10.176;2022-10-16T13:38:26;20.10;91.10
17202;DHT22;8717;53.588;10.176;2022-10-16T13:40:56;20.10;91.20
17202;DHT22;8717;53.588;10.176;2022-10-16T13:46:01;20.00;91.30
17202;DHT22;8717;53.588;10.176;2022-10-16T13:48:29;20.00;91.40
17202;DHT22;8717;53.588;10.176;2022-10-16T13:51:01;20.00;91.70
17202;DHT22;8717;53.588;10.176;2022-10-16T13:53:30;19.90;91.30
17202;DHT22;8717;53.588;10.176;2022-10-16T13:56:01;19.90;91.60
17202;DHT22;8717;53.588;10.176;2022-10-16T13:58:28;19.80;91.20
17202;DHT22;8717;53.588;10.176;2022-10-16T14:00:56;19.70;91.20
17202;DHT22;8717;53.588;10.176;2022-10-16T14:03:25;19.60;91.30
17202;DHT22;8717;53.588;10.176;2022-10-16T14:05:54;19.50;91.20
17202;DHT22;8717;53.588;10.176;2022-10-16T14:08:23;19.40;91.10
17202;DHT22;8717;53.588;10.176;2022-10-16T14:10:52;19.40;91.40
17202;DHT22;8717;53.588;10.176;2022-10-16T14:13:28;19.30;91.40
17202;DHT22;8717;53.588;10.176;2022-10-16T14:15:59;19.20;90.80
17202;DHT22;8717;53.588;10.176;2022-10-16T14:18:27;19.10;90.70
17202;DHT22;8717;53.588;10.176;2022-10-16T14:20:55;19.10;90.90
17202;DHT22;8717;53.588;10.176;2022-10-16T14:23:30;18.90;91.00
17202;DHT22;8717;53.588;10.176;2022-10-16T14:26:15;18.90;91.00
17202;DHT22;8717;53.588;10.176;2022-10-16T14:28:45;18.80;91.30
17202;DHT22;8717;53.588;10.176;2022-10-16T14:31:28;18.80;91.10
17202;DHT22;8717;53.588;10.176;2022-10-16T14:33:55;18.80;91.10
17202;DHT22;8717;53.588;10.176;2022-10-16T14:36:28;18.70;91.40
17202;DHT22;8717;53.588;10.176;2022-10-16T14:38:59;18.70;92.00
17202;DHT22;8717;53.588;10.176;2022-10-16T14:41:27;18.60;92.10
17202;DHT22;8717;53.588;10.176;2022-10-16T14:43:57;18.60;92.10
17202;DHT22;8717;53.588;10.176;2022-10-16T14:46:30;18.60;92.10
17202;DHT22;8717;53.588;10.176;2022-10-16T14:49:02;18.50;92.20
17202;DHT22;8717;53.588;10.176;2022-10-16T14:51:29;18.50;92.30
17202;DHT22;8717;53.588;10.176;2022-10-16T14:53:56;18.40;92.10
17202;DHT22;8717;53.588;10.176;2022-10-16T14:56:25;18.40;92.10
17202;DHT22;8717;53.588;10.176;2022-10-16T14:58:53;18.30;92.20
17202;DHT22;8717;53.588;10.176;2022-10-16T15:01:21;18.20;92.30
17202;DHT22;8717;53.588;10.176;2022-10-16T15:03:48;18.20;92.50
17202;DHT22;8717;53.588;10.176;2022-10-16T15:06:17;18.20;92.70
17202;DHT22;8717;53.588;10.176;2022-10-16T15:08:44;18.10;92.40
17202;DHT22;8717;53.588;10.176;2022-10-16T15:11:16;18.10;92.70
17202;DHT22;8717;53.588;10.176;2022-10-16T15:13:43;18.10;92.80
17202;DHT22;8717;53.588;10.176;2022-10-16T15:16:12;18.00;92.80
17202;DHT22;8717;53.588;10.176;2022-10-16T15:18:40;18.00;92.90
17202;DHT22;8717;53.588;10.176;2022-10-16T15:21:11;17.90;93.00
17202;DHT22;8717;53.588;10.176;2022-10-16T15:23:44;18.00;93.20
17202;DHT22;8717;53.588;10.176;2022-10-16T15:26:10;17.90;93.20
17202;DHT22;8717;53.588;10.176;2022-10-16T15:28:37;17.80;93.10
17202;DHT22;8717;53.588;10.176;2022-10-16T15:31:04;17.80;93.10
17202;DHT22;8717;53.588;10.176;2022-10-16T15:33:31;17.70;93.10
17202;DHT22;8717;53.588;10.176;2022-10-16T15:36:02;17.60;93.20
17202;DHT22;8717;53.588;10.176;2022-10-16T15:38:30;17.50;93.20
17202;DHT22;8717;53.588;10.176;2022-10-16T15:40:56;17.40;93.30
17202;DHT22;8717;53.588;10.176;2022-10-16T15:43:23;17.30;93.50
17202;DHT22;8717;53.588;10.176;2022-10-16T15:45:58;17.20;93.60
17202;DHT22;8717;53.588;10.176;2022-10-16T15:48:25;17.10;93.60
17202;DHT22;8717;53.588;10.176;2022-10-16T15:50:52;17.00;93.70
17202;DHT22;8717;53.588;10.176;2022-10-16T15:53:23;16.80;93.80